Nearby METAR Reports

 

KHQM - Hoquiam,WA, USA
Updated: 07/17/2019 5:47pm
Light rain, Mist, Overcast
Light rain, Mist, Overcast
 Wind from SW
Wind: SW 14 mph , 22 km/h
Temperature: 64°F , 18°C
Dew Point: 64°F , 18°C
Humidity: 100%
Barometer: 29.91 inHg , 1012.9 hPa
Summary: Light rain, Mist
Clouds: Overcast
Visibility: 2 1/2 miles , 4 km
Cloud details: Mostly cloudy 700 ft
Mostly cloudy 1300 ft
Overcast 2000 ft
2019/07/18 00:47 KHQM 180047Z AUTO 23012KT 2 1/2SM -RA BR BKN007 BKN013 OVC020 18/18 A2991 RMK AO2 RAB45 P0000